createdAt,value
2023-03-17T00:01:51.504Z,0.64
2023-03-17T00:04:54.438Z,0.53
2023-03-17T00:08:02.125Z,0.61
2023-03-17T00:11:06.524Z,0.56
2023-03-17T00:14:09.311Z,0.58
2023-03-17T00:17:14.700Z,0.56
2023-03-17T00:20:28.082Z,0.54
2023-03-17T00:23:31.647Z,0.54
2023-03-17T00:26:34.177Z,0.52
2023-03-17T00:29:40.235Z,0.49
2023-03-17T00:32:45.366Z,0.51
2023-03-17T00:35:48.458Z,0.46
2023-03-17T00:38:52.626Z,0.55
2023-03-17T00:41:58.231Z,0.58
2023-03-17T00:45:01.412Z,0.32
2023-03-17T00:48:26.338Z,0.35
2023-03-17T00:51:29.276Z,0.30
2023-03-17T00:54:32.075Z,0.21
2023-03-17T00:57:36.979Z,0.10
2023-03-17T01:00:40.099Z,0.12
2023-03-17T01:03:44.689Z,0.09
2023-03-17T01:06:50.749Z,0.07
2023-03-17T01:09:54.954Z,0.07
2023-03-17T01:12:59.800Z,0.02
2023-03-17T01:16:02.694Z,0.03
2023-03-17T01:19:05.900Z,0.08
2023-03-17T01:22:09.011Z,0.06
2023-03-17T01:25:12.471Z,-0.03
2023-03-17T01:28:16.822Z,0.01
2023-03-17T01:31:20.696Z,-0.14
2023-03-17T01:34:24.065Z,-0.15
2023-03-17T01:37:27.106Z,-0.17
2023-03-17T01:40:32.754Z,-0.19
2023-03-17T01:43:36.630Z,-0.23
2023-03-17T01:46:39.375Z,-0.24
2023-03-17T01:49:43.134Z,-0.25
2023-03-17T01:52:46.080Z,-0.20
2023-03-17T01:55:50.113Z,-0.27
2023-03-17T01:58:54.666Z,-0.24
2023-03-17T02:02:09.001Z,-0.27
2023-03-17T02:05:14.502Z,-0.22
2023-03-17T02:08:17.761Z,-0.36
2023-03-17T02:11:22.509Z,-0.38
2023-03-17T02:14:25.667Z,-0.40
2023-03-17T02:17:29.188Z,-0.49
2023-03-17T02:20:32.181Z,-0.43
2023-03-17T02:23:35.511Z,-0.51
2023-03-17T02:26:38.810Z,-0.56
2023-03-17T02:29:42.098Z,-0.60
2023-03-17T02:32:44.873Z,-0.71
2023-03-17T02:35:47.876Z,-0.78
2023-03-17T02:38:52.822Z,-0.71
2023-03-17T02:41:56.032Z,-0.67
2023-03-17T02:44:59.007Z,-0.59
2023-03-17T02:48:05.073Z,-0.65
2023-03-17T02:51:07.631Z,-0.66
2023-03-17T02:54:10.868Z,-0.68
2023-03-17T02:57:13.408Z,-0.68
2023-03-17T03:00:16.622Z,-0.66
2023-03-17T03:03:19.254Z,-0.80
2023-03-17T03:06:26.266Z,-0.79
2023-03-17T03:09:29.846Z,-0.79
2023-03-17T03:13:16.698Z,-0.86
2023-03-17T03:16:39.773Z,-0.83
2023-03-17T03:20:07.445Z,-0.85
2023-03-17T03:23:12.672Z,-0.85
2023-03-17T03:26:35.603Z,-0.76
2023-03-17T03:29:38.821Z,-0.88
2023-03-17T03:32:41.678Z,-0.99
2023-03-17T03:35:44.481Z,-1.08
2023-03-17T03:38:47.458Z,-1.09
2023-03-17T03:41:50.827Z,-1.11
2023-03-17T03:44:53.880Z,-1.07
2023-03-17T03:47:56.915Z,-1.13
2023-03-17T03:51:01.339Z,-1.17
2023-03-17T03:54:04.044Z,-1.15
2023-03-17T03:57:07.154Z,-1.17
2023-03-17T04:00:14.152Z,-1.19
2023-03-17T04:03:17.275Z,-1.20
2023-03-17T04:06:19.941Z,-1.25
2023-03-17T04:09:22.885Z,-1.20
2023-03-17T04:12:26.105Z,-1.22
2023-03-17T04:15:29.321Z,-1.21
2023-03-17T04:18:32.102Z,-1.27
2023-03-17T04:21:35.088Z,-1.41
2023-03-17T04:24:38.530Z,-1.40
2023-03-17T04:27:42.577Z,-1.44
2023-03-17T04:30:45.784Z,-1.38
2023-03-17T04:33:48.854Z,-1.49
2023-03-17T04:36:51.644Z,-1.49
2023-03-17T04:39:55.871Z,-1.46
2023-03-17T04:42:58.486Z,-1.46
2023-03-17T04:46:01.510Z,-1.42
2023-03-17T04:49:04.710Z,-1.40
2023-03-17T04:52:07.878Z,-1.46
2023-03-17T04:55:12.164Z,-1.51
2023-03-17T04:58:29.459Z,-1.55
2023-03-17T05:01:33.217Z,-1.55
2023-03-17T05:04:36.494Z,-1.51
2023-03-17T05:07:39.148Z,-1.47
2023-03-17T05:10:42.060Z,-1.42
2023-03-17T05:14:06.463Z,-1.42
2023-03-17T05:17:09.291Z,-1.38
2023-03-17T05:20:12.595Z,-1.34
2023-03-17T05:23:17.775Z,-1.38
2023-03-17T05:26:20.346Z,-1.31
2023-03-17T05:29:23.223Z,-1.22
2023-03-17T05:32:25.905Z,-1.24
2023-03-17T05:35:28.855Z,-1.21
2023-03-17T05:38:31.440Z,-1.19
2023-03-17T05:41:34.412Z,-1.21
2023-03-17T05:44:37.063Z,-1.12
2023-03-17T05:47:39.928Z,-1.15
2023-03-17T05:50:42.860Z,-1.10
2023-03-17T05:53:46.006Z,-1.02
2023-03-17T05:56:48.810Z,-0.93
2023-03-17T05:59:51.878Z,-0.82
2023-03-17T06:02:54.556Z,-0.70
2023-03-17T06:05:57.454Z,-0.81
2023-03-17T06:09:01.297Z,-0.76
2023-03-17T06:12:05.022Z,-0.66
2023-03-17T06:15:09.777Z,-0.58
2023-03-17T06:18:12.617Z,-0.46
2023-03-17T06:21:15.606Z,-0.39
2023-03-17T06:24:21.694Z,-0.27
2023-03-17T06:27:24.178Z,-0.14
2023-03-17T06:30:27.079Z,-0.07
2023-03-17T06:33:29.991Z,0.02
2023-03-17T06:36:33.497Z,0.03
2023-03-17T06:39:37.448Z,0.21
2023-03-17T06:42:40.406Z,0.36
2023-03-17T06:45:44.997Z,0.44
2023-03-17T06:48:47.859Z,0.71
2023-03-17T06:51:50.587Z,0.88
2023-03-17T06:54:55.773Z,1.08
2023-03-17T06:57:59.027Z,1.32
2023-03-17T07:01:02.401Z,1.46
2023-03-17T07:04:05.729Z,1.65
2023-03-17T07:07:08.602Z,1.85
2023-03-17T07:10:13.736Z,2.01
2023-03-17T07:13:16.570Z,2.18
2023-03-17T07:16:21.091Z,2.42
2023-03-17T07:19:24.097Z,2.76
2023-03-17T07:22:27.130Z,2.97
2023-03-17T07:25:31.453Z,3.27
2023-03-17T07:28:34.480Z,3.60
2023-03-17T07:31:38.762Z,3.86
2023-03-17T07:34:41.706Z,4.21
2023-03-17T07:37:44.740Z,4.59
2023-03-17T07:40:49.039Z,5.03
2023-03-17T07:43:52.421Z,5.31
2023-03-17T07:46:58.095Z,5.60
2023-03-17T07:50:01.229Z,5.84
2023-03-17T07:53:04.714Z,6.05
2023-03-17T07:56:08.881Z,6.22
2023-03-17T07:59:11.455Z,6.42
2023-03-17T08:02:16.393Z,6.64
2023-03-17T08:05:20.172Z,6.84
2023-03-17T08:08:23.517Z,7.01
2023-03-17T08:11:29.578Z,7.15
2023-03-17T08:14:32.324Z,7.40
2023-03-17T08:17:36.486Z,7.41
2023-03-17T08:20:39.117Z,7.55
2023-03-17T08:23:42.040Z,7.72
2023-03-17T08:26:49.114Z,7.89
2023-03-17T08:29:52.063Z,8.04
2023-03-17T08:32:54.872Z,8.17
2023-03-17T08:35:57.772Z,8.32
2023-03-17T08:39:00.847Z,8.46
2023-03-17T08:42:04.583Z,8.56
2023-03-17T08:45:07.599Z,8.67
2023-03-17T08:48:10.499Z,8.77
2023-03-17T08:51:13.815Z,9.00
2023-03-17T08:54:17.141Z,9.06
2023-03-17T08:57:19.835Z,9.23
2023-03-17T09:00:23.206Z,9.40
2023-03-17T09:03:26.089Z,9.39
2023-03-17T09:06:30.285Z,9.55
2023-03-17T09:09:36.682Z,9.62
2023-03-17T09:12:39.596Z,9.79
2023-03-17T09:15:42.213Z,9.80
2023-03-17T09:18:46.478Z,10.01
2023-03-17T09:21:49.063Z,10.15
2023-03-17T09:24:51.997Z,10.13
2023-03-17T09:27:55.661Z,10.31
2023-03-17T09:31:02.956Z,10.51
2023-03-17T09:34:05.813Z,10.49
2023-03-17T09:37:09.823Z,10.44
2023-03-17T09:40:17.187Z,10.66
2023-03-17T09:43:26.139Z,10.80
2023-03-17T09:46:37.856Z,10.73
2023-03-17T09:49:48.466Z,10.78
2023-03-17T09:52:52.388Z,10.88
2023-03-17T09:55:58.336Z,10.92
2023-03-17T09:59:14.614Z,10.88
2023-03-17T10:02:31.873Z,10.98
2023-03-17T10:05:36.214Z,11.05
2023-03-17T10:08:46.333Z,11.20
2023-03-17T10:12:14.095Z,11.29
2023-03-17T10:15:48.963Z,11.44
2023-03-17T10:19:00.553Z,11.55
2023-03-17T10:22:25.112Z,11.68
2023-03-17T10:25:30.511Z,11.49
2023-03-17T10:28:36.460Z,11.46
2023-03-17T10:31:39.466Z,11.62
2023-03-17T10:34:42.288Z,11.71
2023-03-17T10:37:47.295Z,11.86
2023-03-17T10:40:58.911Z,11.99
2023-03-17T10:44:02.023Z,12.06
2023-03-17T10:47:04.663Z,12.12
2023-03-17T10:50:21.611Z,12.08
2023-03-17T10:53:29.735Z,12.05
2023-03-17T10:56:37.245Z,12.17
2023-03-17T10:59:44.681Z,12.19
2023-03-17T11:02:52.598Z,12.29
2023-03-17T11:06:03.944Z,12.36
2023-03-17T11:09:12.852Z,12.13
2023-03-17T11:12:41.827Z,12.29
2023-03-17T11:15:54.546Z,12.25
2023-03-17T11:18:58.888Z,12.35
2023-03-17T11:22:10.254Z,12.36
2023-03-17T11:25:20.987Z,12.43
2023-03-17T11:28:31.134Z,12.58
2023-03-17T11:31:54.928Z,12.60
2023-03-17T11:35:06.863Z,12.49
2023-03-17T11:38:41.643Z,12.59
2023-03-17T11:41:53.795Z,12.69
2023-03-17T11:44:59.393Z,12.77
2023-03-17T11:48:25.277Z,12.71
2023-03-17T11:51:36.129Z,12.74
2023-03-17T11:55:02.226Z,12.71
2023-03-17T11:58:10.651Z,12.84
2023-03-17T12:01:16.460Z,12.88
2023-03-17T12:04:26.428Z,12.97
2023-03-17T12:07:42.120Z,13.09
2023-03-17T12:10:49.517Z,13.03
2023-03-17T12:13:58.931Z,13.16
2023-03-17T12:17:18.564Z,13.22
2023-03-17T12:20:36.463Z,13.20
2023-03-17T12:23:42.257Z,13.29
2023-03-17T12:26:52.230Z,13.27
2023-03-17T12:30:06.596Z,13.38
2023-03-17T12:33:30.371Z,13.42
2023-03-17T12:36:35.639Z,13.30
2023-03-17T12:39:41.246Z,13.41
2023-03-17T12:43:34.651Z,13.51
2023-03-17T12:46:51.650Z,13.49
2023-03-17T12:50:07.021Z,13.37
2023-03-17T12:53:29.490Z,13.37
2023-03-17T12:56:34.280Z,13.41
2023-03-17T12:59:37.392Z,13.41
2023-03-17T13:02:41.063Z,13.51
2023-03-17T13:05:48.389Z,13.45
2023-03-17T13:08:53.194Z,13.59
2023-03-17T13:11:56.981Z,13.65
2023-03-17T13:14:59.983Z,13.59
2023-03-17T13:18:15.416Z,13.58
2023-03-17T13:21:20.601Z,13.49
2023-03-17T13:24:47.343Z,13.50
2023-03-17T13:27:50.218Z,13.38
2023-03-17T13:31:08.731Z,13.37
2023-03-17T13:34:20.820Z,13.38
2023-03-17T13:37:47.799Z,13.30
2023-03-17T13:41:15.528Z,13.25
2023-03-17T13:44:24.267Z,13.31
2023-03-17T13:47:33.628Z,13.37
2023-03-17T13:50:40.097Z,13.16
2023-03-17T13:53:47.217Z,13.25
2023-03-17T13:56:50.872Z,13.15
2023-03-17T14:00:01.429Z,13.18
2023-03-17T14:03:12.192Z,13.04
2023-03-17T14:06:18.775Z,13.15
2023-03-17T14:09:25.454Z,13.19
2023-03-17T14:12:39.400Z,13.22
2023-03-17T14:16:15.283Z,13.06
2023-03-17T14:19:23.108Z,12.98
2023-03-17T14:22:26.450Z,12.91
2023-03-17T14:25:35.329Z,13.07
2023-03-17T14:28:38.081Z,13.12
2023-03-17T14:31:40.957Z,12.91
2023-03-17T14:35:13.163Z,12.92
2023-03-17T14:38:22.073Z,12.83
2023-03-17T14:41:28.506Z,12.77
2023-03-17T14:44:40.025Z,12.70
2023-03-17T14:47:43.457Z,12.72
2023-03-17T14:50:54.984Z,12.87
2023-03-17T14:54:00.603Z,12.88
2023-03-17T14:57:08.354Z,12.83
2023-03-17T15:00:37.957Z,12.75
2023-03-17T15:04:12.278Z,12.64
2023-03-17T15:07:41.230Z,12.62
2023-03-17T15:10:44.693Z,12.32
2023-03-17T15:13:47.664Z,12.24
2023-03-17T15:16:52.619Z,12.24
2023-03-17T15:19:58.083Z,12.31
2023-03-17T15:23:05.614Z,12.22
2023-03-17T15:26:22.526Z,12.20
2023-03-17T15:29:25.464Z,12.22
2023-03-17T15:32:29.233Z,12.13
2023-03-17T15:35:32.087Z,11.97
2023-03-17T15:38:36.787Z,11.98
2023-03-17T15:41:39.790Z,11.93
2023-03-17T15:44:42.492Z,11.76
2023-03-17T15:47:47.075Z,11.66
2023-03-17T15:50:50.593Z,11.55
2023-03-17T15:53:53.817Z,11.45
2023-03-17T15:56:56.341Z,11.28
2023-03-17T15:59:59.264Z,11.37
2023-03-17T16:03:31.245Z,11.19
2023-03-17T16:06:35.048Z,11.14
2023-03-17T16:09:37.717Z,11.20
2023-03-17T16:12:41.806Z,10.99
2023-03-17T16:15:49.964Z,10.81
2023-03-17T16:18:53.502Z,10.94
2023-03-17T16:21:57.162Z,10.76
2023-03-17T16:24:59.921Z,10.61
2023-03-17T16:28:12.587Z,10.54
2023-03-17T16:31:33.599Z,10.46
2023-03-17T16:34:36.305Z,10.37
2023-03-17T16:37:39.190Z,10.19
2023-03-17T16:40:42.247Z,10.25
2023-03-17T16:43:47.235Z,10.13
2023-03-17T16:46:49.805Z,9.90
2023-03-17T16:49:52.842Z,9.84
2023-03-17T16:52:55.896Z,9.67
2023-03-17T16:55:59.203Z,9.66
2023-03-17T16:59:02.117Z,9.51
2023-03-17T17:02:14.776Z,9.36
2023-03-17T17:05:20.382Z,9.32
2023-03-17T17:08:24.189Z,9.27
2023-03-17T17:11:26.969Z,9.05
2023-03-17T17:14:30.546Z,9.19
2023-03-17T17:17:33.408Z,8.94
2023-03-17T17:20:39.344Z,8.70
2023-03-17T17:23:42.621Z,8.68
2023-03-17T17:26:45.789Z,8.66
2023-03-17T17:29:48.708Z,8.54
2023-03-17T17:32:52.351Z,8.41
2023-03-17T17:35:55.383Z,8.40
2023-03-17T17:39:01.129Z,8.31
2023-03-17T17:42:04.031Z,8.35
2023-03-17T17:45:07.686Z,8.16
2023-03-17T17:48:11.475Z,7.92
2023-03-17T17:51:14.966Z,7.79
2023-03-17T17:54:17.697Z,7.86
2023-03-17T17:57:20.960Z,7.76
2023-03-17T18:00:26.148Z,7.77
2023-03-17T18:03:31.609Z,7.50
2023-03-17T18:06:35.732Z,7.42
2023-03-17T18:09:39.114Z,7.57
2023-03-17T18:12:41.950Z,7.34
2023-03-17T18:15:45.059Z,7.35
2023-03-17T18:18:47.823Z,7.25
2023-03-17T18:21:51.654Z,7.14
2023-03-17T18:24:55.276Z,7.09
2023-03-17T18:28:00.911Z,6.95
2023-03-17T18:31:07.714Z,6.89
2023-03-17T18:34:14.804Z,6.89
2023-03-17T18:37:18.798Z,6.87
2023-03-17T18:40:22.155Z,6.82
2023-03-17T18:43:25.172Z,6.84
2023-03-17T18:46:28.542Z,6.65
2023-03-17T18:49:31.619Z,6.44
2023-03-17T18:52:37.329Z,6.24
2023-03-17T18:55:40.013Z,6.18
2023-03-17T18:58:43.697Z,6.17
2023-03-17T19:01:47.598Z,6.03
2023-03-17T19:04:51.770Z,5.81
2023-03-17T19:07:55.038Z,5.75
2023-03-17T19:10:58.666Z,5.67
2023-03-17T19:14:04.661Z,5.59
2023-03-17T19:17:09.087Z,5.45
2023-03-17T19:20:13.236Z,5.47
2023-03-17T19:23:16.697Z,5.32
2023-03-17T19:26:19.989Z,5.24
2023-03-17T19:29:23.199Z,5.17
2023-03-17T19:32:26.186Z,5.09
2023-03-17T19:35:30.000Z,4.94
2023-03-17T19:38:32.920Z,4.89
2023-03-17T19:41:36.138Z,4.85
2023-03-17T19:44:42.470Z,4.74
2023-03-17T19:47:47.130Z,4.69
2023-03-17T19:50:50.162Z,4.62
2023-03-17T19:53:56.327Z,4.54
2023-03-17T19:56:59.357Z,4.49
2023-03-17T20:00:02.759Z,4.50
2023-03-17T20:03:14.334Z,4.32
2023-03-17T20:06:17.684Z,4.31
2023-03-17T20:09:21.953Z,4.28
2023-03-17T20:12:25.594Z,4.33
2023-03-17T20:15:29.357Z,4.30
2023-03-17T20:18:33.293Z,4.29
2023-03-17T20:21:37.706Z,4.16
2023-03-17T20:24:42.500Z,4.23
2023-03-17T20:27:45.525Z,4.24
2023-03-17T20:30:50.159Z,4.24
2023-03-17T20:33:53.368Z,4.13
2023-03-17T20:36:56.998Z,4.01
2023-03-17T20:40:02.063Z,3.99
2023-03-17T20:43:06.787Z,4.06
2023-03-17T20:46:14.835Z,4.06
2023-03-17T20:49:18.367Z,4.09
2023-03-17T20:52:22.377Z,4.20
2023-03-17T20:55:25.311Z,4.15
2023-03-17T20:58:28.930Z,4.23
2023-03-17T21:01:33.952Z,4.37
2023-03-17T21:04:37.230Z,4.01
2023-03-17T21:07:40.305Z,4.07
2023-03-17T21:10:43.318Z,4.28
2023-03-17T21:13:47.139Z,4.16
2023-03-17T21:16:50.417Z,4.28
2023-03-17T21:19:54.613Z,4.18
2023-03-17T21:22:57.302Z,4.10
2023-03-17T21:26:00.945Z,4.03
2023-03-17T21:29:03.923Z,4.15
2023-03-17T21:32:08.452Z,4.15
2023-03-17T21:35:11.285Z,4.15
2023-03-17T21:38:14.523Z,4.28
2023-03-17T21:41:29.232Z,4.23
2023-03-17T21:44:32.504Z,4.02
2023-03-17T21:47:36.377Z,4.02
2023-03-17T21:50:39.470Z,4.01
2023-03-17T21:53:42.638Z,3.97
2023-03-17T21:56:46.295Z,4.01
2023-03-17T21:59:48.930Z,4.00
2023-03-17T22:02:52.718Z,3.98
2023-03-17T22:05:56.671Z,3.87
2023-03-17T22:08:59.319Z,3.97
2023-03-17T22:12:03.767Z,4.01
2023-03-17T22:15:08.898Z,4.14
2023-03-17T22:18:11.765Z,4.06
2023-03-17T22:21:14.787Z,3.90
2023-03-17T22:24:17.847Z,3.91
2023-03-17T22:27:20.618Z,3.92
2023-03-17T22:30:23.699Z,3.78
2023-03-17T22:33:26.339Z,3.79
2023-03-17T22:36:29.948Z,3.76
2023-03-17T22:39:34.600Z,3.62
2023-03-17T22:42:38.283Z,3.58
2023-03-17T22:45:41.058Z,3.67
2023-03-17T22:48:44.948Z,3.51
2023-03-17T22:51:48.272Z,3.50
2023-03-17T22:54:51.366Z,3.46
2023-03-17T22:57:53.882Z,3.70
2023-03-17T23:00:57.083Z,3.57
2023-03-17T23:04:00.444Z,3.63
2023-03-17T23:07:03.385Z,3.47
2023-03-17T23:10:10.781Z,3.45
2023-03-17T23:13:13.932Z,3.43
2023-03-17T23:16:17.177Z,3.49
2023-03-17T23:19:20.673Z,3.52
2023-03-17T23:22:23.739Z,3.43
2023-03-17T23:25:27.031Z,3.48
2023-03-17T23:28:29.758Z,3.45
2023-03-17T23:31:34.108Z,3.32
2023-03-17T23:34:37.109Z,3.30
2023-03-17T23:37:41.021Z,3.34
2023-03-17T23:40:44.625Z,3.27
2023-03-17T23:43:47.476Z,3.23
2023-03-17T23:46:50.097Z,3.21
2023-03-17T23:49:53.314Z,3.16
2023-03-17T23:52:56.071Z,3.12
2023-03-17T23:55:59.797Z,3.11
2023-03-17T23:59:04.029Z,3.13
